createdAt,value
2019-02-27T00:01:03.590Z,56.21
2019-02-27T00:02:07.342Z,56.46
2019-02-27T00:03:11.092Z,56.77
2019-02-27T00:04:14.738Z,56.81
2019-02-27T00:05:18.466Z,56.90
2019-02-27T00:06:22.213Z,56.84
2019-02-27T00:07:25.948Z,57.07
2019-02-27T00:08:29.585Z,57.29
2019-02-27T00:09:33.440Z,57.13
2019-02-27T00:10:39.262Z,57.15
2019-02-27T00:11:45.862Z,57.14
2019-02-27T00:12:51.770Z,57.07
2019-02-27T00:13:57.651Z,57.51
2019-02-27T00:15:02.112Z,57.40
2019-02-27T00:16:04.972Z,57.38
2019-02-27T00:17:08.617Z,57.42
2019-02-27T00:18:12.727Z,57.59
2019-02-27T00:19:16.728Z,57.85
2019-02-27T00:20:20.375Z,57.74
2019-02-27T00:21:24.048Z,57.57
2019-02-27T00:22:27.699Z,57.50
2019-02-27T00:23:31.373Z,57.49
2019-02-27T00:24:35.073Z,57.59
2019-02-27T00:25:38.720Z,57.61
2019-02-27T00:26:43.073Z,58.02
2019-02-27T00:27:49.144Z,57.92
2019-02-27T00:28:55.983Z,57.94
2019-02-27T00:29:59.463Z,57.94
2019-02-27T00:31:02.999Z,58.04
2019-02-27T00:32:07.025Z,57.97
2019-02-27T00:33:10.620Z,58.19
2019-02-27T00:34:14.281Z,58.23
2019-02-27T00:35:17.942Z,58.32
2019-02-27T00:36:21.586Z,58.35
2019-02-27T00:37:25.233Z,58.31
2019-02-27T00:38:28.875Z,58.25
2019-02-27T00:39:32.556Z,58.40
2019-02-27T00:40:39.359Z,58.38
2019-02-27T00:41:45.708Z,58.33
2019-02-27T00:42:47.710Z,58.27
2019-02-27T00:43:51.352Z,58.32
2019-02-27T00:44:55.025Z,58.31
2019-02-27T00:45:58.589Z,58.41
2019-02-27T00:47:02.224Z,58.55
2019-02-27T00:48:05.872Z,58.59
2019-02-27T00:49:09.526Z,58.70
2019-02-27T00:50:13.242Z,58.55
2019-02-27T00:51:16.894Z,58.52
2019-02-27T00:52:20.466Z,58.37
2019-02-27T00:53:24.437Z,58.23
2019-02-27T00:54:29.005Z,58.47
2019-02-27T00:55:38.450Z,58.49
2019-02-27T00:56:44.841Z,58.23
2019-02-27T00:57:45.744Z,58.30
2019-02-27T00:58:49.386Z,58.28
2019-02-27T00:59:53.119Z,58.34
2019-02-27T01:00:56.805Z,58.65
2019-02-27T01:02:00.457Z,58.41
2019-02-27T01:03:04.104Z,58.40
2019-02-27T01:04:07.814Z,58.37
2019-02-27T01:05:11.943Z,58.18
2019-02-27T01:06:15.604Z,58.15
2019-02-27T01:07:20.742Z,58.23
2019-02-27T01:08:25.093Z,58.39
2019-02-27T01:09:29.993Z,58.77
2019-02-27T01:10:33.640Z,58.74
2019-02-27T01:11:37.393Z,58.82
2019-02-27T01:12:41.241Z,58.97
2019-02-27T01:13:44.882Z,59.11
2019-02-27T01:14:48.529Z,59.13
2019-02-27T01:15:52.171Z,58.87
2019-02-27T01:16:55.844Z,58.51
2019-02-27T01:17:59.491Z,58.46
2019-02-27T01:19:04.756Z,58.40
2019-02-27T01:20:12.687Z,58.61
2019-02-27T01:21:19.261Z,58.59
2019-02-27T01:22:21.788Z,58.62
2019-02-27T01:23:25.415Z,58.92
2019-02-27T01:24:29.056Z,58.85
2019-02-27T01:25:33.042Z,59.12
2019-02-27T01:26:36.688Z,58.89
2019-02-27T01:27:40.296Z,58.45
2019-02-27T01:28:45.477Z,58.01
2019-02-27T01:29:51.581Z,57.59
2019-02-27T01:30:54.641Z,57.53
2019-02-27T01:31:58.322Z,57.15
2019-02-27T01:33:04.201Z,56.84
2019-02-27T01:34:11.163Z,56.63
2019-02-27T01:35:17.520Z,56.21
2019-02-27T01:36:21.767Z,55.84
2019-02-27T01:37:24.975Z,55.79
2019-02-27T01:38:28.665Z,55.75
2019-02-27T01:39:32.314Z,55.54
2019-02-27T01:40:35.953Z,55.51
2019-02-27T01:41:39.914Z,55.53
2019-02-27T01:42:43.559Z,55.60
2019-02-27T01:43:47.232Z,55.49
2019-02-27T01:44:50.965Z,55.20
2019-02-27T01:45:55.018Z,55.13
2019-02-27T01:47:01.537Z,55.28
2019-02-27T01:48:04.125Z,55.43
2019-02-27T01:49:07.779Z,55.60
2019-02-27T01:50:34.931Z,55.87
2019-02-27T01:51:38.567Z,55.92
2019-02-27T01:52:42.209Z,56.00
2019-02-27T01:53:45.845Z,56.07
2019-02-27T01:54:49.618Z,56.52
2019-02-27T01:55:56.247Z,56.96
2019-02-27T01:57:02.496Z,57.07
2019-02-27T01:58:04.326Z,57.49
2019-02-27T01:59:07.976Z,57.49
2019-02-27T02:00:11.756Z,57.67
2019-02-27T02:01:15.406Z,57.75
2019-02-27T02:02:19.366Z,57.78
2019-02-27T02:03:23.033Z,58.09
2019-02-27T02:04:26.656Z,57.76
2019-02-27T02:05:31.368Z,57.64
2019-02-27T02:06:35.003Z,57.79
2019-02-27T02:07:40.288Z,57.86
2019-02-27T02:08:47.928Z,57.99
2019-02-27T02:09:49.376Z,57.63
2019-02-27T02:10:56.079Z,57.45
2019-02-27T02:12:11.403Z,57.26
2019-02-27T02:13:18.440Z,57.01
2019-02-27T02:14:40.015Z,56.70
2019-02-27T02:16:10.699Z,56.32
2019-02-27T02:17:20.045Z,56.52
2019-02-27T02:18:29.434Z,56.13
2019-02-27T02:19:35.992Z,56.37
2019-02-27T02:21:00.896Z,55.89
2019-02-27T02:22:11.306Z,55.57
2019-02-27T02:23:33.148Z,54.88
2019-02-27T02:25:00.561Z,54.89
2019-02-27T02:26:16.091Z,54.70
2019-02-27T02:27:22.684Z,54.59
2019-02-27T02:28:48.218Z,54.96
2019-02-27T02:30:16.917Z,55.04
2019-02-27T02:31:32.525Z,55.02
2019-02-27T02:32:55.565Z,55.27
2019-02-27T02:34:24.762Z,55.32
2019-02-27T02:35:34.220Z,55.19
2019-02-27T02:36:46.561Z,55.45
2019-02-27T02:38:12.334Z,55.61
2019-02-27T02:39:31.399Z,55.70
2019-02-27T02:40:54.438Z,55.79
2019-02-27T02:42:06.718Z,55.90
2019-02-27T02:43:41.641Z,55.88
2019-02-27T02:45:02.659Z,55.96
2019-02-27T02:46:12.223Z,56.16
2019-02-27T02:47:27.737Z,55.90
2019-02-27T02:48:56.899Z,55.75
2019-02-27T02:50:18.474Z,55.94
2019-02-27T02:51:34.233Z,56.01
2019-02-27T02:52:46.600Z,55.88
2019-02-27T02:54:08.230Z,56.16
2019-02-27T02:55:23.985Z,56.07
2019-02-27T02:56:36.167Z,56.02
2019-02-27T02:57:57.738Z,55.94
2019-02-27T02:59:36.321Z,55.86
2019-02-27T03:00:42.881Z,55.82
2019-02-27T03:01:50.220Z,55.89
2019-02-27T03:03:11.271Z,55.81
2019-02-27T03:04:51.440Z,56.04
2019-02-27T03:06:17.661Z,55.79
2019-02-27T03:07:35.614Z,55.58
2019-02-27T03:08:47.934Z,55.61
2019-02-27T03:09:57.135Z,55.38
2019-02-27T03:11:19.139Z,55.28
2019-02-27T03:12:30.959Z,55.45
2019-02-27T03:13:41.511Z,55.57
2019-02-27T03:15:18.619Z,55.37
2019-02-27T03:16:41.067Z,55.53
2019-02-27T03:17:55.120Z,55.74
2019-02-27T03:19:06.262Z,56.01
2019-02-27T03:20:32.818Z,55.76
2019-02-27T03:21:51.454Z,55.59
2019-02-27T03:23:26.582Z,55.64
2019-02-27T03:24:49.893Z,55.63
2019-02-27T03:26:05.579Z,55.63
2019-02-27T03:27:14.895Z,55.87
2019-02-27T03:28:21.442Z,56.20
2019-02-27T03:29:39.767Z,56.20
2019-02-27T03:30:58.114Z,56.21
2019-02-27T03:32:10.533Z,56.26
2019-02-27T03:33:32.065Z,55.90
2019-02-27T03:34:51.475Z,55.97
2019-02-27T03:36:04.454Z,56.39
2019-02-27T03:37:23.297Z,56.25
2019-02-27T03:39:01.674Z,55.93
2019-02-27T03:40:45.099Z,55.68
2019-02-27T03:42:12.811Z,56.15
2019-02-27T03:43:31.371Z,56.44
2019-02-27T03:44:40.795Z,56.66
2019-02-27T03:46:06.284Z,57.02
2019-02-27T03:47:17.075Z,56.79
2019-02-27T03:48:49.664Z,56.89
2019-02-27T03:49:58.983Z,57.05
2019-02-27T03:51:37.382Z,57.25
2019-02-27T03:52:52.657Z,57.50
2019-02-27T03:54:20.879Z,57.06
2019-02-27T03:55:32.893Z,56.83
2019-02-27T03:57:01.002Z,56.57
2019-02-27T03:58:16.463Z,56.54
2019-02-27T03:59:34.640Z,57.13
2019-02-27T04:01:02.725Z,57.41
2019-02-27T04:02:23.803Z,57.43
2019-02-27T04:03:30.359Z,57.66
2019-02-27T04:04:45.596Z,57.83
2019-02-27T04:06:19.640Z,58.13
2019-02-27T04:07:31.895Z,58.10
2019-02-27T04:08:56.711Z,58.03
2019-02-27T04:10:00.380Z,58.18
2019-02-27T04:11:05.887Z,58.40
2019-02-27T04:12:09.437Z,58.25
2019-02-27T04:13:13.076Z,57.93
2019-02-27T04:14:30.616Z,58.20
2019-02-27T04:15:34.428Z,57.92
2019-02-27T04:16:38.272Z,57.86
2019-02-27T04:17:40.733Z,57.84
2019-02-27T04:18:44.367Z,57.89
2019-02-27T04:19:48.009Z,57.97
2019-02-27T04:20:51.653Z,58.13
2019-02-27T04:22:00.479Z,57.95
2019-02-27T04:23:01.385Z,57.92
2019-02-27T04:24:05.022Z,58.30
2019-02-27T04:25:09.079Z,58.60
2019-02-27T04:26:13.103Z,58.87
2019-02-27T04:27:20.035Z,58.94
2019-02-27T04:28:22.150Z,58.74
2019-02-27T04:29:25.779Z,58.41
2019-02-27T04:30:29.459Z,58.27
2019-02-27T04:31:33.153Z,58.08
2019-02-27T04:32:36.801Z,58.21
2019-02-27T04:33:40.540Z,58.50
2019-02-27T04:34:44.180Z,58.83
2019-02-27T04:35:47.811Z,58.95
2019-02-27T04:36:51.459Z,59.09
2019-02-27T04:37:55.103Z,59.07
2019-02-27T04:39:01.875Z,59.12
2019-02-27T04:40:06.035Z,58.63
2019-02-27T04:41:09.663Z,58.35
2019-02-27T04:42:13.315Z,58.11
2019-02-27T04:43:16.949Z,58.01
2019-02-27T04:44:20.637Z,58.41
2019-02-27T04:45:24.668Z,58.86
2019-02-27T04:46:28.313Z,59.14
2019-02-27T04:47:31.934Z,59.12
2019-02-27T04:48:35.620Z,59.22
2019-02-27T04:49:39.310Z,58.94
2019-02-27T04:50:44.163Z,58.58
2019-02-27T04:51:50.610Z,58.54
2019-02-27T04:52:57.751Z,58.31
2019-02-27T04:53:59.145Z,58.51
2019-02-27T04:55:03.123Z,62.75
2019-02-27T04:56:06.762Z,63.63
2019-02-27T04:57:10.449Z,61.08
2019-02-27T04:58:14.099Z,63.22
2019-02-27T04:59:18.773Z,62.86
2019-02-27T05:00:26.099Z,63.57
2019-02-27T05:01:28.382Z,63.39
2019-02-27T05:02:32.402Z,62.59
2019-02-27T05:03:36.033Z,63.64
2019-02-27T05:04:39.667Z,62.96
2019-02-27T05:05:43.335Z,63.45
2019-02-27T05:06:47.780Z,63.07
2019-02-27T05:07:54.131Z,63.13
2019-02-27T05:08:59.786Z,62.06
2019-02-27T05:10:02.283Z,61.19
2019-02-27T05:11:05.972Z,62.68
2019-02-27T05:12:09.616Z,61.93
2019-02-27T05:13:13.259Z,61.30
2019-02-27T05:14:16.896Z,61.38
2019-02-27T05:15:20.540Z,61.35
2019-02-27T05:16:24.142Z,61.63
2019-02-27T05:17:27.780Z,61.40
2019-02-27T05:18:31.426Z,61.54
2019-02-27T05:19:37.242Z,61.84
2019-02-27T05:20:44.800Z,61.69
2019-02-27T05:21:45.816Z,61.93
2019-02-27T05:22:49.456Z,63.37
2019-02-27T05:23:53.028Z,62.63
2019-02-27T05:24:57.011Z,61.69
2019-02-27T05:26:00.659Z,62.05
2019-02-27T05:27:04.341Z,61.61
2019-02-27T05:28:07.978Z,61.09
2019-02-27T05:29:11.614Z,60.98
2019-02-27T05:30:15.545Z,61.31
2019-02-27T05:31:19.222Z,61.38
2019-02-27T05:32:25.315Z,61.15
2019-02-27T05:33:28.675Z,61.13
2019-02-27T05:34:32.477Z,60.25
2019-02-27T05:35:36.445Z,60.27
2019-02-27T05:36:40.091Z,60.57
2019-02-27T05:37:44.262Z,60.33
2019-02-27T05:38:47.962Z,60.42
2019-02-27T05:39:51.785Z,60.42
2019-02-27T05:40:59.875Z,59.94
2019-02-27T05:42:00.985Z,59.93
2019-02-27T05:43:04.703Z,59.83
2019-02-27T05:44:08.352Z,59.78
2019-02-27T05:45:12.669Z,59.98
2019-02-27T05:46:16.379Z,60.05
2019-02-27T05:47:20.073Z,59.85
2019-02-27T05:48:23.715Z,60.16
2019-02-27T05:49:27.542Z,60.15
2019-02-27T05:50:33.982Z,60.31
2019-02-27T05:51:36.984Z,60.82
2019-02-27T05:52:40.659Z,61.66
2019-02-27T05:53:47.684Z,61.79
2019-02-27T05:54:51.322Z,61.80
2019-02-27T05:55:54.969Z,61.80
2019-02-27T05:56:58.673Z,61.58
2019-02-27T05:58:02.732Z,61.84
2019-02-27T05:59:06.385Z,61.89
2019-02-27T06:00:15.975Z,61.91
2019-02-27T06:01:19.619Z,62.04
2019-02-27T06:02:23.270Z,61.99
2019-02-27T06:03:26.951Z,62.54
2019-02-27T06:04:30.600Z,62.67
2019-02-27T06:05:36.011Z,62.09
2019-02-27T06:06:39.683Z,61.95
2019-02-27T06:07:43.323Z,61.79
2019-02-27T06:08:47.016Z,61.82
2019-02-27T06:09:50.716Z,62.05
2019-02-27T06:10:55.993Z,61.77
2019-02-27T06:11:59.900Z,61.78
2019-02-27T06:13:03.633Z,61.68
2019-02-27T06:14:07.305Z,61.56
2019-02-27T06:15:18.793Z,61.42
2019-02-27T06:16:22.444Z,61.61
2019-02-27T06:17:27.735Z,61.50
2019-02-27T06:18:31.335Z,63.99
2019-02-27T06:19:37.266Z,64.93
2019-02-27T06:20:42.760Z,64.10
2019-02-27T06:21:46.712Z,62.30
2019-02-27T06:22:50.302Z,61.64
2019-02-27T06:23:53.941Z,61.64
2019-02-27T06:24:57.549Z,61.86
2019-02-27T06:26:02.631Z,61.83
2019-02-27T06:27:06.923Z,61.75
2019-02-27T06:28:13.674Z,61.58
2019-02-27T06:29:17.323Z,61.90
2019-02-27T06:30:21.661Z,63.55
2019-02-27T06:31:25.310Z,65.30
2019-02-27T06:32:33.300Z,64.15
2019-02-27T06:33:37.608Z,63.98
2019-02-27T06:34:41.251Z,63.93
2019-02-27T06:35:45.114Z,64.07
2019-02-27T06:36:48.766Z,62.93
2019-02-27T06:37:52.405Z,62.92
2019-02-27T06:39:00.139Z,62.04
2019-02-27T06:40:01.383Z,61.02
2019-02-27T06:41:05.026Z,60.60
2019-02-27T06:42:08.733Z,60.18
2019-02-27T06:43:12.393Z,59.89
2019-02-27T06:44:16.127Z,60.57
2019-02-27T06:45:19.785Z,59.33
2019-02-27T06:46:23.483Z,59.31
2019-02-27T06:47:27.161Z,59.52
2019-02-27T06:48:30.817Z,59.59
2019-02-27T06:49:34.487Z,59.66
2019-02-27T06:50:38.137Z,59.44
2019-02-27T06:51:41.781Z,59.28
2019-02-27T06:52:45.434Z,59.15
2019-02-27T06:53:48.946Z,59.06
2019-02-27T06:54:52.933Z,58.25
2019-02-27T06:55:56.701Z,57.71
2019-02-27T06:57:00.337Z,56.82
2019-02-27T06:58:04.210Z,56.96
2019-02-27T06:59:08.157Z,56.57
2019-02-27T07:00:17.648Z,56.28
2019-02-27T07:01:21.309Z,55.73
2019-02-27T07:02:24.944Z,54.73
2019-02-27T07:03:29.519Z,54.57
2019-02-27T07:04:39.204Z,54.24
2019-02-27T07:05:39.312Z,54.07
2019-02-27T07:06:42.987Z,54.16
2019-02-27T07:07:46.618Z,53.83
2019-02-27T07:08:50.258Z,53.58
2019-02-27T07:09:53.891Z,53.03
2019-02-27T07:11:09.946Z,52.95
2019-02-27T07:12:03.314Z,52.30
2019-02-27T07:13:06.959Z,52.35
2019-02-27T07:14:10.597Z,51.56
2019-02-27T07:15:18.828Z,51.58
2019-02-27T07:16:22.899Z,51.01
2019-02-27T07:17:29.225Z,51.42
2019-02-27T07:18:32.803Z,50.91
2019-02-27T07:19:36.440Z,50.94
2019-02-27T07:20:40.070Z,50.87
2019-02-27T07:21:43.705Z,51.09
2019-02-27T07:22:47.409Z,51.06
2019-02-27T07:23:51.047Z,51.00
2019-02-27T07:24:54.684Z,50.28
2019-02-27T07:25:58.329Z,50.32
2019-02-27T07:27:02.318Z,50.58
2019-02-27T07:28:08.170Z,50.49
2019-02-27T07:29:21.119Z,50.23
2019-02-27T07:30:23.814Z,50.44
2019-02-27T07:31:27.708Z,50.08
2019-02-27T07:32:32.112Z,49.58
2019-02-27T07:33:37.986Z,49.83
2019-02-27T07:34:41.158Z,49.92
2019-02-27T07:35:44.793Z,49.28
2019-02-27T07:36:48.413Z,48.74
2019-02-27T07:37:52.059Z,48.90
2019-02-27T07:38:57.656Z,49.30
2019-02-27T07:40:01.103Z,49.01
2019-02-27T07:41:04.727Z,49.08
2019-02-27T07:42:08.364Z,48.65
2019-02-27T07:43:12.057Z,48.34
2019-02-27T07:44:15.696Z,47.51
2019-02-27T07:45:22.576Z,47.87
2019-02-27T07:46:26.155Z,48.04
2019-02-27T07:47:30.132Z,47.77
2019-02-27T07:48:33.768Z,47.99
2019-02-27T07:49:37.430Z,47.89
2019-02-27T07:50:41.409Z,47.56
2019-02-27T07:51:45.045Z,47.98
2019-02-27T07:52:49.066Z,47.77
2019-02-27T07:53:53.814Z,47.50
2019-02-27T07:54:58.506Z,47.65
2019-02-27T07:56:02.609Z,47.23
2019-02-27T07:57:06.528Z,47.15
2019-02-27T07:58:10.159Z,47.17
2019-02-27T07:59:13.712Z,47.06
2019-02-27T08:00:19.164Z,46.74
2019-02-27T08:01:23.511Z,46.86
2019-02-27T08:02:27.907Z,46.99
2019-02-27T08:03:31.535Z,46.35
2019-02-27T08:04:35.082Z,46.42
2019-02-27T08:05:38.740Z,46.15
2019-02-27T08:06:42.384Z,46.38
2019-02-27T08:07:48.676Z,46.16
2019-02-27T08:08:51.365Z,46.66
2019-02-27T08:09:56.437Z,46.96
2019-02-27T08:11:00.105Z,46.59
2019-02-27T08:12:03.742Z,46.50
2019-02-27T08:13:07.453Z,46.15
2019-02-27T08:14:12.876Z,46.43
2019-02-27T08:15:18.051Z,46.82
2019-02-27T08:16:22.631Z,46.93
2019-02-27T08:17:26.498Z,46.46
2019-02-27T08:18:33.574Z,46.88
2019-02-27T08:19:35.586Z,46.85
2019-02-27T08:20:39.230Z,47.33
2019-02-27T08:21:42.890Z,47.23
2019-02-27T08:22:46.518Z,47.02
2019-02-27T08:23:50.146Z,47.30
2019-02-27T08:24:53.783Z,46.63
2019-02-27T08:25:57.423Z,47.09
2019-02-27T08:27:01.095Z,46.50
2019-02-27T08:28:04.725Z,46.88
2019-02-27T08:29:08.366Z,46.90
2019-02-27T08:30:22.636Z,46.47
2019-02-27T08:31:28.259Z,46.68
2019-02-27T08:32:34.499Z,46.32
2019-02-27T08:33:37.398Z,45.91
2019-02-27T08:34:41.144Z,46.24
2019-02-27T08:35:44.775Z,46.63
2019-02-27T08:36:48.413Z,46.63
2019-02-27T08:38:01.907Z,46.29
2019-02-27T08:38:57.471Z,46.64
2019-02-27T08:40:01.383Z,46.15
2019-02-27T08:41:05.011Z,45.56
2019-02-27T08:42:08.961Z,45.87
2019-02-27T08:43:12.628Z,46.16
2019-02-27T08:44:16.263Z,45.71
2019-02-27T08:45:20.853Z,46.24
2019-02-27T08:46:24.500Z,46.04
2019-02-27T08:47:28.126Z,45.60
2019-02-27T08:48:31.788Z,45.44
2019-02-27T08:49:35.406Z,45.34
2019-02-27T08:50:39.043Z,45.36
2019-02-27T08:51:42.745Z,45.45
2019-02-27T08:52:50.568Z,45.49
2019-02-27T08:53:51.822Z,45.41
2019-02-27T08:54:56.119Z,45.46
2019-02-27T08:55:59.743Z,45.88
2019-02-27T08:57:03.387Z,45.47
2019-02-27T08:58:07.271Z,45.64
2019-02-27T08:59:11.396Z,45.76
2019-02-27T09:00:17.942Z,45.96
2019-02-27T09:01:22.330Z,45.76
2019-02-27T09:02:29.212Z,45.70
2019-02-27T09:03:36.160Z,45.93
2019-02-27T09:04:36.836Z,46.50
2019-02-27T09:05:40.467Z,46.17
2019-02-27T09:06:44.102Z,46.25
2019-02-27T09:07:47.838Z,46.51
2019-02-27T09:08:51.466Z,45.91
2019-02-27T09:09:55.276Z,45.77
2019-02-27T09:10:58.958Z,45.44
2019-02-27T09:12:03.177Z,45.24
2019-02-27T09:13:06.923Z,44.64
2019-02-27T09:14:12.030Z,44.50
2019-02-27T09:15:15.897Z,44.15
2019-02-27T09:16:19.538Z,44.61
2019-02-27T09:17:26.848Z,44.11
2019-02-27T09:18:29.275Z,44.12
2019-02-27T09:19:32.909Z,43.94
2019-02-27T09:20:36.592Z,44.47
2019-02-27T09:21:40.231Z,44.34
2019-02-27T09:22:43.867Z,44.65
2019-02-27T09:23:47.518Z,44.85
2019-02-27T09:24:51.149Z,44.77
2019-02-27T09:25:57.256Z,45.42
2019-02-27T09:27:00.215Z,45.50
2019-02-27T09:28:09.030Z,45.35
2019-02-27T09:29:09.319Z,44.71
2019-02-27T09:30:18.373Z,44.67
2019-02-27T09:31:22.041Z,44.44
2019-02-27T09:32:25.678Z,44.97
2019-02-27T09:33:38.354Z,46.00
2019-02-27T09:34:34.958Z,46.02
2019-02-27T09:35:38.867Z,46.30
2019-02-27T09:36:43.267Z,46.44
2019-02-27T09:37:48.256Z,46.12
2019-02-27T09:38:57.378Z,46.31
2019-02-27T09:39:58.629Z,46.43
2019-02-27T09:41:02.603Z,46.30
2019-02-27T09:42:06.277Z,46.56
2019-02-27T09:43:09.969Z,46.80
2019-02-27T09:44:14.422Z,47.20
2019-02-27T09:45:35.222Z,47.08
2019-02-27T09:46:39.156Z,46.90
2019-02-27T09:47:42.831Z,47.04
2019-02-27T09:48:46.464Z,47.04
2019-02-27T09:49:50.093Z,47.56
2019-02-27T09:50:53.736Z,47.40
2019-02-27T09:51:57.288Z,47.39
2019-02-27T09:53:03.297Z,47.00
2019-02-27T09:54:08.112Z,47.44
2019-02-27T09:55:12.699Z,47.43
2019-02-27T09:56:16.331Z,47.65
2019-02-27T09:57:19.971Z,47.53
2019-02-27T09:58:23.686Z,47.90
2019-02-27T09:59:27.275Z,48.44
2019-02-27T10:00:36.304Z,48.12
2019-02-27T10:01:39.940Z,48.28
2019-02-27T10:02:46.391Z,48.20
2019-02-27T10:03:48.939Z,48.40
2019-02-27T10:04:52.622Z,48.52
2019-02-27T10:05:56.243Z,48.49
2019-02-27T10:06:59.874Z,48.29
2019-02-27T10:08:03.510Z,48.44
2019-02-27T10:09:08.140Z,48.47
2019-02-27T10:10:11.833Z,48.39
2019-02-27T10:11:18.812Z,48.57
2019-02-27T10:12:21.040Z,47.86
2019-02-27T10:13:24.667Z,47.76
2019-02-27T10:14:28.301Z,47.82
2019-02-27T10:15:31.975Z,47.49
2019-02-27T10:16:35.613Z,47.62
2019-02-27T10:17:41.047Z,47.73
2019-02-27T10:18:44.809Z,47.50
2019-02-27T10:19:48.442Z,47.89
2019-02-27T10:20:52.212Z,47.70
2019-02-27T10:21:55.830Z,47.75
2019-02-27T10:22:59.735Z,47.95
2019-02-27T10:24:04.845Z,48.09
2019-02-27T10:25:09.549Z,47.82
2019-02-27T10:26:13.224Z,47.50
2019-02-27T10:27:16.860Z,46.98
2019-02-27T10:28:20.490Z,47.80
2019-02-27T10:29:24.127Z,47.32
2019-02-27T10:30:27.794Z,47.29
2019-02-27T10:31:31.454Z,47.27
2019-02-27T10:32:36.702Z,47.36
2019-02-27T10:33:42.819Z,47.11
2019-02-27T10:34:45.827Z,46.94
2019-02-27T10:35:51.164Z,47.26
2019-02-27T10:36:54.984Z,47.11
2019-02-27T10:37:58.777Z,47.43
2019-02-27T10:39:02.825Z,47.11
2019-02-27T10:40:23.976Z,46.96
2019-02-27T10:41:27.613Z,46.67
2019-02-27T10:42:31.466Z,46.67
2019-02-27T10:43:35.116Z,46.07
2019-02-27T10:44:38.758Z,45.81
2019-02-27T10:45:42.400Z,45.60
2019-02-27T10:46:46.335Z,45.39
2019-02-27T10:47:50.008Z,44.80
2019-02-27T10:48:53.659Z,45.04
2019-02-27T10:50:01.620Z,44.58
2019-02-27T10:51:02.916Z,45.07
2019-02-27T10:52:06.642Z,44.78
2019-02-27T10:53:10.677Z,45.10
2019-02-27T10:54:14.307Z,44.86
2019-02-27T10:55:22.260Z,44.81
2019-02-27T10:56:25.896Z,44.52
2019-02-27T10:57:31.868Z,44.70
2019-02-27T10:58:34.950Z,44.13
2019-02-27T10:59:38.581Z,43.88
2019-02-27T11:00:43.200Z,44.42
2019-02-27T11:01:46.856Z,43.73
2019-02-27T11:02:52.461Z,43.91
2019-02-27T11:03:55.996Z,43.37
2019-02-27T11:04:59.624Z,43.24
2019-02-27T11:06:03.265Z,43.13
2019-02-27T11:07:06.895Z,42.41
2019-02-27T11:08:10.599Z,42.32
2019-02-27T11:09:20.282Z,41.69
2019-02-27T11:10:24.753Z,41.40
2019-02-27T11:11:28.470Z,41.16
2019-02-27T11:12:32.397Z,41.68
2019-02-27T11:13:36.044Z,41.26
2019-02-27T11:14:39.705Z,41.04
2019-02-27T11:15:44.807Z,41.04
2019-02-27T11:16:48.779Z,41.53
2019-02-27T11:17:52.422Z,41.67
2019-02-27T11:18:56.062Z,41.67
2019-02-27T11:19:59.707Z,41.23
2019-02-27T11:21:03.455Z,41.66
2019-02-27T11:22:07.092Z,41.69
2019-02-27T11:23:10.729Z,41.36
2019-02-27T11:24:16.757Z,41.44
2019-02-27T11:25:22.541Z,41.48
2019-02-27T11:26:26.848Z,41.64
2019-02-27T11:27:30.485Z,42.04
2019-02-27T11:28:34.124Z,41.66
2019-02-27T11:29:37.680Z,41.12
2019-02-27T11:30:42.646Z,40.97
2019-02-27T11:31:46.285Z,40.84
2019-02-27T11:32:49.926Z,41.30
2019-02-27T11:33:53.562Z,41.30
2019-02-27T11:34:57.274Z,40.83
2019-02-27T11:36:03.196Z,41.51
2019-02-27T11:37:06.361Z,41.51
2019-02-27T11:38:10.565Z,40.97
2019-02-27T11:39:14.329Z,41.01
2019-02-27T11:40:20.541Z,41.30
2019-02-27T11:41:24.207Z,41.25
2019-02-27T11:42:28.976Z,41.25
2019-02-27T11:43:33.198Z,40.75
2019-02-27T11:44:37.254Z,40.80
2019-02-27T11:45:41.041Z,40.23
2019-02-27T11:46:44.715Z,40.23
2019-02-27T11:47:48.356Z,40.56
2019-02-27T11:48:52.004Z,40.56
2019-02-27T11:49:55.666Z,40.72
2019-02-27T11:50:59.692Z,40.50
2019-02-27T11:52:03.379Z,40.66
2019-02-27T11:53:07.019Z,39.85
2019-02-27T11:54:10.662Z,39.72
2019-02-27T11:55:16.314Z,40.30
2019-02-27T11:56:20.858Z,40.05
2019-02-27T11:57:27.329Z,39.59
2019-02-27T11:58:31.070Z,38.44
2019-02-27T11:59:34.703Z,38.45
2019-02-27T12:00:38.641Z,37.85
2019-02-27T12:01:42.380Z,37.85
2019-02-27T12:02:46.139Z,38.70
2019-02-27T12:03:49.767Z,37.29
2019-02-27T12:04:56.479Z,38.78
2019-02-27T12:05:58.788Z,38.78
2019-02-27T12:07:02.436Z,38.87
2019-02-27T12:08:06.179Z,38.34
2019-02-27T12:09:09.811Z,37.79
2019-02-27T12:10:19.211Z,37.67
2019-02-27T12:11:22.846Z,36.82
2019-02-27T12:12:26.496Z,36.90
2019-02-27T12:13:32.306Z,36.90
2019-02-27T12:14:35.461Z,38.05
2019-02-27T12:15:43.347Z,38.18
2019-02-27T12:16:44.473Z,38.24
2019-02-27T12:17:48.507Z,38.24
2019-02-27T12:18:52.171Z,38.67
2019-02-27T12:19:55.832Z,38.65
2019-02-27T12:20:59.480Z,38.65
2019-02-27T12:22:03.527Z,38.89
2019-02-27T12:23:07.511Z,37.90
2019-02-27T12:24:12.555Z,37.90
2019-02-27T12:25:17.702Z,37.69
2019-02-27T12:26:21.368Z,37.69
2019-02-27T12:27:47.736Z,38.00
2019-02-27T12:28:30.401Z,38.00
2019-02-27T12:29:34.042Z,38.88
2019-02-27T12:30:38.041Z,38.88
2019-02-27T12:31:41.898Z,38.88
2019-02-27T12:32:45.651Z,38.58
2019-02-27T12:33:49.402Z,38.58
2019-02-27T12:34:53.088Z,38.59
2019-02-27T12:35:56.724Z,38.28
2019-02-27T12:37:00.412Z,38.57
2019-02-27T12:38:08.265Z,39.26
2019-02-27T12:39:10.495Z,39.96
2019-02-27T12:40:24.074Z,39.78
2019-02-27T12:41:24.461Z,39.47
2019-02-27T12:42:36.932Z,40.60
2019-02-27T12:43:33.398Z,39.97
2019-02-27T12:44:37.038Z,39.94
2019-02-27T12:45:41.017Z,40.50
2019-02-27T12:46:44.763Z,40.33
2019-02-27T12:47:48.480Z,40.33
2019-02-27T12:48:52.040Z,41.03
2019-02-27T12:49:55.681Z,41.57
2019-02-27T12:51:03.466Z,41.57
2019-02-27T12:52:04.719Z,41.74
2019-02-27T12:53:08.361Z,41.08
2019-02-27T12:54:11.996Z,41.08
2019-02-27T12:55:15.839Z,41.06
2019-02-27T12:56:19.559Z,40.98
2019-02-27T12:57:23.200Z,40.84
2019-02-27T12:58:26.837Z,40.87
2019-02-27T12:59:30.707Z,40.10
2019-02-27T13:00:36.249Z,39.90
2019-02-27T13:01:39.993Z,40.07
2019-02-27T13:02:43.629Z,40.07
2019-02-27T13:03:47.501Z,40.61
2019-02-27T13:04:52.635Z,40.40
2019-02-27T13:05:58.200Z,40.40
2019-02-27T13:07:01.890Z,39.36
2019-02-27T13:08:05.537Z,35.95
2019-02-27T13:09:09.176Z,35.95
2019-02-27T13:10:18.652Z,35.17
2019-02-27T13:11:22.289Z,33.95
2019-02-27T13:12:25.960Z,33.74
2019-02-27T13:13:29.609Z,33.11
2019-02-27T13:14:33.860Z,33.25
2019-02-27T13:15:38.314Z,33.52
2019-02-27T13:16:43.036Z,34.04
2019-02-27T13:17:46.702Z,32.42
2019-02-27T13:18:50.337Z,31.82
2019-02-27T13:19:53.966Z,31.82
2019-02-27T13:20:57.605Z,32.34
2019-02-27T13:22:01.243Z,32.40
2019-02-27T13:23:05.567Z,32.28
2019-02-27T13:24:09.331Z,32.17
2019-02-27T13:25:12.967Z,32.08
2019-02-27T13:26:16.601Z,32.05
2019-02-27T13:27:20.250Z,31.73
2019-02-27T13:28:23.916Z,32.18
2019-02-27T13:29:27.550Z,31.25
2019-02-27T13:30:31.184Z,31.34
2019-02-27T13:31:34.896Z,30.66
2019-02-27T13:32:38.541Z,31.10
2019-02-27T13:33:42.237Z,30.65
2019-02-27T13:34:48.241Z,29.78
2019-02-27T13:35:51.305Z,29.61
2019-02-27T13:36:54.940Z,29.98
2019-02-27T13:37:58.886Z,30.60
2019-02-27T13:39:02.552Z,30.90
2019-02-27T13:40:14.929Z,31.59
2019-02-27T13:41:18.564Z,31.66
2019-02-27T13:42:22.204Z,31.49
2019-02-27T13:43:27.083Z,31.49
2019-02-27T13:44:34.482Z,31.45
2019-02-27T13:45:36.773Z,32.60
2019-02-27T13:46:40.422Z,32.60
2019-02-27T13:47:44.050Z,33.01
2019-02-27T13:48:47.693Z,32.92
2019-02-27T13:49:51.367Z,32.93
2019-02-27T13:50:56.637Z,33.02
2019-02-27T13:52:00.654Z,33.73
2019-02-27T13:53:04.392Z,34.83
2019-02-27T13:54:08.032Z,35.43
2019-02-27T13:55:14.632Z,35.82
2019-02-27T13:56:18.272Z,36.10
2019-02-27T13:57:24.844Z,36.46
2019-02-27T13:58:27.185Z,37.57
2019-02-27T13:59:30.842Z,37.57
2019-02-27T14:00:37.018Z,38.22
2019-02-27T14:01:40.654Z,37.88
2019-02-27T14:02:44.297Z,39.17
2019-02-27T14:03:48.399Z,39.71
2019-02-27T14:04:53.828Z,38.68
2019-02-27T14:05:58.063Z,38.21
2019-02-27T14:07:01.697Z,38.21
2019-02-27T14:08:06.193Z,37.06
2019-02-27T14:09:10.315Z,35.11
2019-02-27T14:10:19.831Z,35.18
2019-02-27T14:11:24.873Z,35.18